Time;durP1;ratioP1;P1;durP2;ratioP2;P2;SDS_P1;SDS_P2;PMS_P1;PMS_P2;Temp;Humidity;BMP_temperature;BMP_pressure;BME280_temperature;BME280_humidity;BME280_pressure;Samples;Min_cycle;Max_cycle;Signal;HPM_P1;HPM_P2
2021/12/22 00:00:35;;;;;;;21.80;19.20;;;-4.90;99.90;;;;;;5053528;28;20228;-81
2021/12/22 00:03:02;;;;;;;29.10;20.27;;;-4.90;99.90;;;;;;5054718;28;20198;-81
2021/12/22 00:05:30;;;;;;;21.10;18.70;;;-4.90;99.90;;;;;;5053985;28;20193;-81
2021/12/22 00:07:56;;;;;;;22.27;18.67;;;-4.90;99.90;;;;;;5053808;28;20206;-81
2021/12/22 00:10:23;;;;;;;25.17;18.43;;;-5.00;99.90;;;;;;5053780;28;20191;-81
2021/12/22 00:12:49;;;;;;;23.63;18.20;;;-4.90;99.90;;;;;;5053550;28;20205;-81
2021/12/22 00:15:15;;;;;;;23.30;18.10;;;-5.00;99.90;;;;;;5053996;28;20186;-81
2021/12/22 00:17:41;;;;;;;22.07;18.57;;;-5.00;99.90;;;;;;5053388;28;20186;-81
2021/12/22 00:20:09;;;;;;;21.57;16.33;;;-5.10;99.90;;;;;;5052583;28;20209;-81
2021/12/22 00:22:35;;;;;;;20.07;16.53;;;-5.10;99.90;;;;;;5051967;28;20206;-81
2021/12/22 00:25:02;;;;;;;19.87;16.80;;;-5.10;99.90;;;;;;5052630;28;20205;-81
2021/12/22 00:27:28;;;;;;;24.47;17.67;;;-5.10;99.90;;;;;;5052764;28;20651;-81
2021/12/22 00:29:54;;;;;;;20.17;16.67;;;-5.20;99.90;;;;;;5052938;28;20189;-81
2021/12/22 00:32:20;;;;;;;20.07;15.80;;;-5.20;99.90;;;;;;5052798;28;20202;-81
2021/12/22 00:34:52;;;;;;;22.90;16.30;;;-5.10;99.90;;;;;;5053137;28;20178;-81
2021/12/22 00:37:20;;;;;;;20.77;16.23;;;-5.10;99.90;;;;;;5054348;28;20178;-81
2021/12/22 00:39:47;;;;;;;19.53;16.77;;;-5.10;99.90;;;;;;5055741;28;20497;-81
2021/12/22 00:42:13;;;;;;;23.27;17.30;;;-5.00;99.90;;;;;;5054588;28;20352;-81
2021/12/22 00:44:41;;;;;;;22.50;16.33;;;-4.90;99.90;;;;;;5054294;28;20313;-81
2021/12/22 00:47:07;;;;;;;18.87;16.57;;;-5.00;99.90;;;;;;5053876;28;20529;-81
2021/12/22 00:49:33;;;;;;;19.77;17.47;;;-5.10;99.90;;;;;;5053540;28;20182;-81
2021/12/22 00:52:00;;;;;;;21.07;16.77;;;-5.10;99.90;;;;;;5053329;28;20202;-81
2021/12/22 00:54:25;;;;;;;23.57;16.17;;;-5.20;99.90;;;;;;5055172;28;20602;-80
2021/12/22 00:56:51;;;;;;;17.57;15.70;;;-5.20;99.90;;;;;;5057837;28;20183;-80
2021/12/22 00:59:18;;;;;;;18.37;16.50;;;-5.30;99.90;;;;;;5058834;28;20174;-80
2021/12/22 01:01:45;;;;;;;26.30;16.83;;;-5.40;99.90;;;;;;5053782;28;20206;-81
2021/12/22 01:04:11;;;;;;;19.80;17.40;;;-5.40;99.90;;;;;;5053120;28;20253;-80
2021/12/22 01:06:37;;;;;;;19.93;16.60;;;-5.40;99.90;;;;;;5052865;28;20643;-80
2021/12/22 01:09:05;;;;;;;22.87;17.00;;;-5.40;99.90;;;;;;5052738;28;20181;-82
2021/12/22 01:11:30;;;;;;;22.03;17.77;;;-5.40;99.90;;;;;;5059388;28;20159;-81
2021/12/22 01:13:56;;;;;;;22.30;16.70;;;-5.50;99.90;;;;;;5077080;28;20240;-81
2021/12/22 01:16:22;;;;;;;17.57;15.67;;;-5.40;99.90;;;;;;5064309;28;20178;-81
2021/12/22 01:18:48;;;;;;;19.67;15.60;;;-5.40;99.90;;;;;;5053849;28;20662;-81
2021/12/22 01:21:21;;;;;;;25.13;16.83;;;-5.40;99.90;;;;;;5054535;28;20244;-81
2021/12/22 01:26:25;;;;;;;21.47;15.87;;;-5.50;99.90;;;;;;5053850;28;20182;-81
2021/12/22 01:28:50;;;;;;;19.73;16.17;;;-5.40;99.90;;;;;;5052347;28;20179;-81
2021/12/22 01:31:17;;;;;;;26.00;16.47;;;-5.50;99.90;;;;;;5052080;28;20189;-81
2021/12/22 01:33:43;;;;;;;16.87;15.10;;;-5.40;99.90;;;;;;5054601;28;20213;-81
2021/12/22 01:36:09;;;;;;;17.23;15.50;;;-5.40;99.90;;;;;;5056461;28;20192;-81
2021/12/22 01:38:35;;;;;;;17.07;15.47;;;-5.40;99.90;;;;;;5055879;28;20181;-81
2021/12/22 01:41:01;;;;;;;18.27;16.40;;;-5.40;99.90;;;;;;5055932;28;20289;-81
2021/12/22 01:43:27;;;;;;;18.27;16.37;;;-5.40;99.90;;;;;;5055481;28;20194;-80
2021/12/22 01:46:20;;;;;;;17.67;15.77;;;-5.30;99.90;;;;;;5055347;28;20179;-80
2021/12/22 01:51:44;;;;;;;16.40;14.80;;;-5.20;99.90;;;;;;5056927;28;20246;-80
2021/12/22 01:54:33;;;;;;;19.93;16.03;;;-5.30;99.90;;;;;;5054936;28;20300;-80
2021/12/22 01:57:02;;;;;;;19.23;16.67;;;-5.30;99.90;;;;;;5055449;28;20560;-81
2021/12/22 01:59:29;;;;;;;18.33;16.40;;;-5.30;99.90;;;;;;5055729;28;20268;-81
2021/12/22 02:01:55;;;;;;;20.13;16.50;;;-5.40;99.90;;;;;;5054924;28;20210;-81
2021/12/22 02:04:21;;;;;;;19.17;16.47;;;-5.40;99.90;;;;;;5055781;28;20657;-81
2021/12/22 02:06:48;;;;;;;18.63;16.30;;;-5.40;99.90;;;;;;5055610;28;20175;-81
2021/12/22 02:09:26;;;;;;;19.00;17.03;;;-5.50;99.90;;;;;;5055626;28;20634;-81
2021/12/22 02:11:52;;;;;;;22.30;16.03;;;-5.50;99.90;;;;;;5055478;28;20190;-81
2021/12/22 02:14:18;;;;;;;18.43;16.53;;;-5.60;99.90;;;;;;5056059;28;20183;-81
2021/12/22 02:16:43;;;;;;;18.40;16.43;;;-5.70;99.90;;;;;;5055204;28;20627;-81
2021/12/22 02:19:10;;;;;;;22.07;17.07;;;-5.70;99.90;;;;;;5056641;28;20167;-81
2021/12/22 02:21:43;;;;;;;19.20;16.53;;;-5.70;99.90;;;;;;5055553;28;20207;-81
2021/12/22 02:24:09;;;;;;;17.87;15.57;;;-5.60;99.90;;;;;;5055686;28;20203;-80
2021/12/22 02:26:40;;;;;;;20.40;16.07;;;-5.70;99.90;;;;;;5056313;28;20545;-80
2021/12/22 02:29:17;;;;;;;21.50;16.43;;;-5.60;99.90;;;;;;5056237;28;20163;-80
2021/12/22 02:32:02;;;;;;;18.57;16.23;;;-5.60;99.90;;;;;;5057624;28;20618;-80
2021/12/22 02:34:28;;;;;;;22.07;16.73;;;-5.60;99.90;;;;;;5057719;28;20635;-80
2021/12/22 02:36:59;;;;;;;18.10;16.13;;;-5.70;99.90;;;;;;5056459;28;20182;-80
2021/12/22 02:39:24;;;;;;;22.13;16.33;;;-5.60;99.90;;;;;;5056486;28;20177;-80
2021/12/22 02:41:50;;;;;;;18.00;16.10;;;-5.70;99.90;;;;;;5055900;28;20293;-82
2021/12/22 02:44:16;;;;;;;22.43;16.87;;;-5.80;99.90;;;;;;5056304;28;20647;-82
2021/12/22 02:46:42;;;;;;;19.57;15.70;;;-5.70;99.90;;;;;;5055878;28;20185;-82
2021/12/22 02:49:09;;;;;;;18.73;16.53;;;-5.80;99.90;;;;;;5055691;28;20174;-82
2021/12/22 02:51:36;;;;;;;18.23;16.33;;;-5.80;99.90;;;;;;5056234;28;20178;-83
2021/12/22 02:54:12;;;;;;;17.20;15.50;;;-5.90;99.90;;;;;;5054810;28;20577;-83
2021/12/22 02:56:53;;;;;;;21.33;15.93;;;-5.90;99.90;;;;;;5054774;28;20593;-83
2021/12/22 02:59:54;;;;;;;19.47;16.87;;;-5.90;99.90;;;;;;5054214;28;20174;-82
2021/12/22 03:02:35;;;;;;;20.17;16.47;;;-5.80;99.90;;;;;;5054113;28;20207;-82
2021/12/22 03:05:03;;;;;;;21.73;16.10;;;-5.80;99.90;;;;;;5054653;28;20247;-82
2021/12/22 03:07:31;;;;;;;18.60;15.80;;;-5.80;99.90;;;;;;5054587;28;20564;-82
2021/12/22 03:10:04;;;;;;;17.00;15.20;;;-5.80;99.90;;;;;;5054391;28;20193;-80
2021/12/22 03:12:33;;;;;;;18.40;16.40;;;-5.80;99.90;;;;;;5055521;28;20199;-80
2021/12/22 03:14:59;;;;;;;21.60;15.47;;;-5.90;99.90;;;;;;5054279;28;20187;-80
2021/12/22 03:17:25;;;;;;;22.17;16.83;;;-5.80;99.90;;;;;;5055193;28;20315;-80
2021/12/22 03:19:52;;;;;;;17.87;15.90;;;-5.70;99.90;;;;;;5055122;28;20713;-80
2021/12/22 03:22:20;;;;;;;18.43;15.37;;;-5.90;99.90;;;;;;5054029;28;20233;-81
2021/12/22 03:24:47;;;;;;;17.47;14.27;;;-5.90;99.90;;;;;;5054375;28;20201;-81
2021/12/22 03:27:13;;;;;;;20.70;17.53;;;-5.90;99.90;;;;;;5054742;28;20512;-79
2021/12/22 03:29:39;;;;;;;23.20;17.27;;;-5.90;99.90;;;;;;5056160;28;20249;-82
2021/12/22 03:32:06;;;;;;;18.70;15.63;;;-6.00;99.90;;;;;;5054187;28;20602;-82
2021/12/22 03:34:32;;;;;;;18.27;16.47;;;-5.90;99.90;;;;;;5055513;28;20178;-82
2021/12/22 03:36:59;;;;;;;18.13;16.17;;;-5.90;99.90;;;;;;5054412;28;20179;-82
2021/12/22 03:39:24;;;;;;;20.40;16.67;;;-6.00;99.90;;;;;;5054353;28;20604;-83
2021/12/22 03:41:50;;;;;;;17.90;16.07;;;-6.00;99.90;;;;;;5054295;28;20202;-82
2021/12/22 03:44:16;;;;;;;16.93;15.17;;;-6.10;99.90;;;;;;5053945;28;20312;-83
2021/12/22 03:46:42;;;;;;;21.43;17.30;;;-6.10;99.90;;;;;;5053865;28;20174;-82
2021/12/22 03:49:10;;;;;;;18.07;16.17;;;-6.10;99.90;;;;;;5055009;28;20311;-82
2021/12/22 03:51:36;;;;;;;18.10;15.90;;;-6.10;99.90;;;;;;5056334;28;20183;-83
2021/12/22 03:54:04;;;;;;;23.57;17.07;;;-6.10;99.90;;;;;;5054391;28;20248;-83
2021/12/22 03:56:29;;;;;;;18.57;16.17;;;-6.10;99.90;;;;;;5053369;28;20192;-83
2021/12/22 03:58:55;;;;;;;19.93;16.33;;;-6.10;99.90;;;;;;5053603;28;20269;-83
2021/12/22 04:01:21;;;;;;;18.23;16.30;;;-6.20;99.90;;;;;;5054732;28;20209;-83
2021/12/22 04:03:50;;;;;;;17.17;15.47;;;-6.20;99.90;;;;;;5054810;28;20278;-83
2021/12/22 04:06:16;;;;;;;17.63;15.83;;;-6.10;99.90;;;;;;5054421;28;20202;-83
2021/12/22 04:08:42;;;;;;;18.03;16.23;;;-6.10;99.90;;;;;;5054405;28;20174;-82
2021/12/22 04:11:07;;;;;;;19.90;16.63;;;-6.20;99.90;;;;;;5055418;28;20253;-83
2021/12/22 04:13:33;;;;;;;20.77;15.67;;;-6.20;99.90;;;;;;5054086;28;20202;-83
2021/12/22 04:15:59;;;;;;;23.40;17.23;;;-6.10;99.90;;;;;;5054179;28;20182;-83
2021/12/22 04:18:25;;;;;;;18.50;16.57;;;-6.10;99.90;;;;;;5053879;28;20552;-83
2021/12/22 04:20:50;;;;;;;19.67;16.20;;;-6.20;99.90;;;;;;5053391;28;20202;-83
2021/12/22 04:23:16;;;;;;;22.60;16.47;;;-6.20;99.90;;;;;;5053229;28;20194;-82
2021/12/22 04:25:42;;;;;;;22.07;16.13;;;-6.20;99.90;;;;;;5053243;28;20197;-82
2021/12/22 04:28:10;;;;;;;17.87;15.77;;;-6.20;99.90;;;;;;5053369;28;20178;-82
2021/12/22 04:30:41;;;;;;;18.83;16.60;;;-6.30;99.90;;;;;;5055473;28;20181;-81
2021/12/22 04:33:07;;;;;;;18.27;15.53;;;-6.20;99.90;;;;;;5054072;28;20202;-82
2021/12/22 04:35:33;;;;;;;19.63;16.27;;;-6.30;99.90;;;;;;5054285;28;20185;-81
2021/12/22 04:38:00;;;;;;;23.07;16.60;;;-6.30;99.90;;;;;;5054639;28;20209;-82
2021/12/22 04:40:26;;;;;;;23.27;16.23;;;-6.30;99.90;;;;;;5054410;28;20198;-81
2021/12/22 04:42:51;;;;;;;21.43;16.90;;;-6.30;99.90;;;;;;5053028;28;20202;-84
2021/12/22 04:45:17;;;;;;;18.03;16.13;;;-6.30;99.90;;;;;;5053519;28;20228;-85
2021/12/22 04:47:44;;;;;;;18.03;15.77;;;-6.20;99.90;;;;;;5053002;28;20788;-86
2021/12/22 04:50:15;;;;;;;22.63;16.73;;;-6.20;99.90;;;;;;5053317;28;20183;-85
2021/12/22 04:52:50;;;;;;;18.33;16.30;;;-6.20;99.90;;;;;;5053103;28;20190;-84
2021/12/22 04:55:17;;;;;;;18.83;16.90;;;-6.10;99.90;;;;;;5054305;28;20154;-84
2021/12/22 04:57:42;;;;;;;18.53;16.33;;;-6.10;99.90;;;;;;5052886;28;20178;-84
2021/12/22 05:00:10;;;;;;;22.20;17.10;;;-6.10;99.90;;;;;;5054366;28;20531;-84
2021/12/22 05:02:36;;;;;;;21.07;17.17;;;-6.20;99.90;;;;;;5069580;28;20198;-84
2021/12/22 05:05:03;;;;;;;20.17;17.40;;;-6.20;99.90;;;;;;5052980;28;20208;-84
2021/12/22 05:07:29;;;;;;;20.40;16.27;;;-6.30;99.90;;;;;;5053490;28;20690;-84
2021/12/22 05:09:55;;;;;;;19.07;16.67;;;-6.30;99.90;;;;;;5056562;28;20209;-84
2021/12/22 05:12:20;;;;;;;20.20;16.80;;;-6.30;99.90;;;;;;5056985;28;20229;-84
2021/12/22 05:14:49;;;;;;;22.93;16.73;;;-6.30;99.90;;;;;;5056705;28;20225;-84
2021/12/22 05:17:23;;;;;;;19.50;16.77;;;-6.40;99.90;;;;;;5056774;28;20685;-84
2021/12/22 05:19:49;;;;;;;19.30;16.27;;;-6.30;99.90;;;;;;5056998;28;20171;-84
2021/12/22 05:22:14;;;;;;;22.97;16.67;;;-6.30;99.90;;;;;;5057888;28;20263;-84
2021/12/22 05:24:40;;;;;;;21.17;16.47;;;-6.30;99.90;;;;;;5056320;28;20198;-84
2021/12/22 05:27:08;;;;;;;19.47;17.00;;;-6.20;99.90;;;;;;5056282;28;20178;-84
2021/12/22 05:29:34;;;;;;;17.47;15.70;;;-6.30;99.90;;;;;;5056410;28;20179;-83
2021/12/22 05:32:01;;;;;;;20.70;17.37;;;-6.30;99.90;;;;;;5056364;28;20611;-84
2021/12/22 05:34:27;;;;;;;17.80;15.90;;;-6.20;99.90;;;;;;5056760;28;20179;-84
2021/12/22 05:36:54;;;;;;;22.63;16.33;;;-6.20;99.90;;;;;;5057093;28;20224;-84
2021/12/22 05:39:20;;;;;;;21.90;17.40;;;-6.20;99.90;;;;;;5057969;28;20174;-84
2021/12/22 05:41:45;;;;;;;17.43;15.83;;;-6.30;99.90;;;;;;5056172;28;20212;-84
2021/12/22 05:44:11;;;;;;;20.27;17.30;;;-6.30;99.90;;;;;;5057295;28;20194;-84
2021/12/22 05:46:37;;;;;;;19.43;16.37;;;-6.30;99.90;;;;;;5056157;28;20185;-84
2021/12/22 05:49:03;;;;;;;26.67;17.07;;;-6.20;99.90;;;;;;5056192;28;20186;-84
2021/12/22 05:51:32;;;;;;;19.10;16.63;;;-6.20;99.90;;;;;;5055975;28;20261;-84
2021/12/22 05:53:58;;;;;;;23.27;16.60;;;-6.10;99.90;;;;;;5056022;28;20263;-84
2021/12/22 05:56:26;;;;;;;17.43;15.60;;;-6.10;99.90;;;;;;5055387;28;20634;-84
2021/12/22 05:58:53;;;;;;;18.03;16.07;;;-6.20;99.90;;;;;;5056638;28;20547;-84
2021/12/22 06:01:19;;;;;;;21.83;15.73;;;-6.10;99.90;;;;;;5055592;28;20202;-84
2021/12/22 06:03:44;;;;;;;17.07;15.40;;;-6.10;99.90;;;;;;5055835;28;20289;-84
2021/12/22 06:06:11;;;;;;;16.60;15.00;;;-6.00;99.90;;;;;;5055957;28;20210;-84
2021/12/22 06:08:37;;;;;;;18.17;15.87;;;-6.00;99.90;;;;;;5055871;28;20175;-84
2021/12/22 06:11:03;;;;;;;16.33;14.63;;;-6.10;99.90;;;;;;5055577;28;20178;-84
2021/12/22 06:13:29;;;;;;;17.57;14.80;;;-6.00;99.90;;;;;;5055690;28;20555;-84
2021/12/22 06:15:55;;;;;;;15.83;14.33;;;-6.00;99.90;;;;;;5055510;28;20184;-84
2021/12/22 06:18:21;;;;;;;20.10;15.57;;;-6.00;99.90;;;;;;5055868;28;20209;-84
2021/12/22 06:20:47;;;;;;;17.73;15.93;;;-5.90;99.90;;;;;;5054499;28;20198;-84
2021/12/22 06:23:13;;;;;;;16.73;15.00;;;-6.00;99.90;;;;;;5055594;28;20662;-83
2021/12/22 06:25:39;;;;;;;16.80;15.13;;;-6.00;99.90;;;;;;5054929;28;20605;-84
2021/12/22 06:28:05;;;;;;;18.53;15.37;;;-5.90;99.90;;;;;;5055177;28;20171;-84
2021/12/22 06:30:32;;;;;;;16.50;14.80;;;-5.90;99.90;;;;;;5056593;28;20705;-84
2021/12/22 06:32:58;;;;;;;17.03;14.80;;;-6.00;99.90;;;;;;5055028;28;20202;-84
2021/12/22 06:35:24;;;;;;;16.27;14.70;;;-6.00;99.90;;;;;;5055229;28;20178;-84
2021/12/22 06:37:51;;;;;;;16.53;14.80;;;-6.00;99.90;;;;;;5055000;28;20189;-84
2021/12/22 06:40:17;;;;;;;16.03;14.53;;;-6.00;99.90;;;;;;5055543;28;20181;-84
2021/12/22 06:42:43;;;;;;;15.87;14.53;;;-5.90;99.90;;;;;;5055130;28;20289;-84
2021/12/22 06:45:11;;;;;;;19.47;14.23;;;-5.90;99.90;;;;;;5055687;28;20186;-84
2021/12/22 06:47:37;;;;;;;16.27;14.63;;;-5.90;99.90;;;;;;5055478;28;20177;-84
2021/12/22 06:50:05;;;;;;;16.87;14.73;;;-5.80;99.90;;;;;;5055360;28;20178;-84
2021/12/22 06:52:30;;;;;;;17.43;14.23;;;-5.80;99.90;;;;;;5071707;28;20731;-83
2021/12/22 06:54:56;;;;;;;21.27;15.50;;;-5.80;99.90;;;;;;5055354;28;20179;-84
2021/12/22 06:57:22;;;;;;;16.30;14.60;;;-5.70;99.90;;;;;;5054982;28;20174;-84
2021/12/22 06:59:48;;;;;;;16.70;15.10;;;-5.80;99.90;;;;;;5055298;28;20304;-84
2021/12/22 07:02:14;;;;;;;14.90;13.40;;;-5.80;99.90;;;;;;5054860;28;20704;-83
2021/12/22 07:04:40;;;;;;;15.57;14.07;;;-5.80;99.90;;;;;;5055151;28;20175;-84
2021/12/22 07:07:06;;;;;;;17.37;14.70;;;-5.70;99.90;;;;;;5055171;28;20643;-84
2021/12/22 07:09:32;;;;;;;16.10;14.60;;;-5.80;99.90;;;;;;5054905;28;20171;-84
2021/12/22 07:11:59;;;;;;;15.97;14.50;;;-5.80;99.90;;;;;;5054895;28;20185;-83
2021/12/22 07:14:25;;;;;;;15.93;14.53;;;-5.70;99.90;;;;;;5054921;28;20185;-84
2021/12/22 07:16:51;;;;;;;15.57;14.27;;;-5.80;99.90;;;;;;5071544;28;20182;-84
2021/12/22 07:19:17;;;;;;;16.17;14.70;;;-5.90;99.90;;;;;;5054858;28;20175;-84
2021/12/22 07:21:44;;;;;;;18.83;14.57;;;-5.90;99.90;;;;;;5054571;28;20206;-84
2021/12/22 07:24:10;;;;;;;16.77;14.73;;;-5.80;99.90;;;;;;5054699;28;20205;-84
2021/12/22 07:26:38;;;;;;;15.90;14.50;;;-5.80;99.90;;;;;;5055539;28;20233;-84
2021/12/22 07:29:04;;;;;;;15.10;13.90;;;-5.90;99.90;;;;;;5054963;28;20171;-84
2021/12/22 07:31:30;;;;;;;16.23;14.73;;;-5.90;99.90;;;;;;5053888;28;20182;-84
2021/12/22 07:34:20;;;;;;;17.00;14.67;;;-5.80;99.90;;;;;;5054669;28;20198;-84
2021/12/22 07:37:03;;;;;;;14.27;13.07;;;-5.70;99.90;;;;;;5054020;28;20201;-84
2021/12/22 07:39:28;;;;;;;15.07;13.57;;;-5.80;99.90;;;;;;5070194;28;20173;-84
2021/12/22 07:41:54;;;;;;;16.47;14.80;;;-5.80;99.90;;;;;;5054812;28;20203;-84
2021/12/22 07:44:20;;;;;;;16.33;14.73;;;-5.90;99.90;;;;;;5054340;28;20198;-84
2021/12/22 07:46:46;;;;;;;15.50;13.97;;;-5.90;99.90;;;;;;5053709;28;20256;-84
2021/12/22 07:49:12;;;;;;;16.73;15.03;;;-6.00;99.90;;;;;;5053678;28;20175;-84
2021/12/22 07:51:38;;;;;;;20.07;14.90;;;-6.00;99.90;;;;;;5053669;28;20190;-84
2021/12/22 07:54:03;;;;;;;14.77;13.37;;;-6.00;99.90;;;;;;5053418;28;20202;-84
2021/12/22 07:56:29;;;;;;;15.53;14.17;;;-5.90;99.90;;;;;;5053527;28;20544;-84
2021/12/22 07:58:55;;;;;;;15.13;13.63;;;-5.90;99.90;;;;;;5053839;28;20500;-84
2021/12/22 08:01:21;;;;;;;15.33;13.93;;;-5.80;99.90;;;;;;5053794;28;20232;-84
2021/12/22 08:03:47;;;;;;;19.30;14.53;;;-5.70;99.90;;;;;;5053906;28;20716;-83
2021/12/22 08:06:14;;;;;;;16.30;14.67;;;-5.70;99.90;;;;;;5053127;28;20175;-83
2021/12/22 08:08:40;;;;;;;17.93;13.40;;;-5.70;99.90;;;;;;5053427;28;20178;-83
2021/12/22 08:11:05;;;;;;;15.60;14.20;;;-5.70;99.90;;;;;;5053079;28;20178;-83
2021/12/22 08:13:32;;;;;;;16.93;14.33;;;-5.60;99.90;;;;;;5053096;28;20570;-84
2021/12/22 08:15:58;;;;;;;15.40;13.80;;;-5.50;99.90;;;;;;5053423;28;20606;-84
2021/12/22 08:18:24;;;;;;;24.97;15.27;;;-5.50;99.90;;;;;;5054545;28;20194;-84
2021/12/22 08:20:50;;;;;;;19.23;14.07;;;-5.30;99.90;;;;;;5053097;28;20202;-84
2021/12/22 08:23:18;;;;;;;15.60;14.10;;;-5.40;99.90;;;;;;5053456;28;20720;-84
2021/12/22 08:25:44;;;;;;;15.37;13.90;;;-5.40;99.90;;;;;;5054295;28;20193;-84
2021/12/22 08:28:10;;;;;;;17.90;15.10;;;-5.40;99.90;;;;;;5054010;28;20181;-84
2021/12/22 08:30:37;;;;;;;24.17;17.87;;;-5.30;99.90;;;;;;5053927;28;20238;-84
2021/12/22 08:33:09;;;;;;;28.27;20.43;;;-5.20;99.90;;;;;;5054507;28;20277;-84
2021/12/22 08:38:50;;;;;;;22.13;18.43;;;-5.10;99.90;;;;;;5054516;28;20205;-83
2021/12/22 08:41:08;;;;;;;17.23;15.13;;;-5.00;99.90;;;;;;5055076;28;20260;-84
2021/12/22 08:43:33;;;;;;;16.47;14.77;;;-5.00;99.90;;;;;;5056675;28;20198;-84
2021/12/22 08:45:59;;;;;;;17.83;15.00;;;-5.00;99.90;;;;;;5057846;28;20185;-84
2021/12/22 08:48:25;;;;;;;16.40;14.83;;;-4.90;99.90;;;;;;5058043;28;20174;-84
2021/12/22 08:50:50;;;;;;;17.50;14.33;;;-4.80;99.90;;;;;;5057666;28;20174;-84
2021/12/22 08:53:16;;;;;;;23.33;15.40;;;-4.80;99.90;;;;;;5057947;28;20198;-84
2021/12/22 08:55:42;;;;;;;16.20;14.60;;;-4.60;99.90;;;;;;5059096;28;20175;-84
2021/12/22 08:58:08;;;;;;;16.47;14.77;;;-4.50;99.90;;;;;;5057720;28;20205;-84
2021/12/22 09:00:36;;;;;;;17.20;15.57;;;-4.40;99.90;;;;;;5057652;28;20202;-84
2021/12/22 09:03:02;;;;;;;18.20;15.00;;;-4.30;99.90;;;;;;5057713;28;20205;-84
2021/12/22 09:05:28;;;;;;;16.30;14.60;;;-4.20;99.90;;;;;;5057432;28;20203;-84
2021/12/22 09:07:53;;;;;;;16.53;14.93;;;-4.10;99.90;;;;;;5059691;28;20175;-84
2021/12/22 09:10:19;;;;;;;16.97;15.27;;;-4.00;99.90;;;;;;5059598;28;20177;-84
2021/12/22 09:12:45;;;;;;;18.37;16.37;;;-4.00;99.90;;;;;;5057990;28;20195;-84
2021/12/22 09:15:11;;;;;;;17.23;15.43;;;-3.80;99.90;;;;;;5058826;28;20174;-84
2021/12/22 09:17:36;;;;;;;18.53;15.87;;;-3.70;99.90;;;;;;5065458;28;20159;-82
2021/12/22 09:20:03;;;;;;;21.13;16.27;;;-3.70;99.90;;;;;;5065805;28;20190;-84
2021/12/22 09:22:29;;;;;;;18.07;16.37;;;-3.60;99.90;;;;;;5078151;28;20210;-84
2021/12/22 09:24:55;;;;;;;16.77;15.10;;;-3.60;99.90;;;;;;5059671;28;20213;-84
2021/12/22 09:27:20;;;;;;;16.67;15.07;;;-3.50;99.90;;;;;;5058213;28;20256;-84
2021/12/22 09:29:46;;;;;;;20.07;15.57;;;-3.40;99.90;;;;;;5059008;28;20236;-84
2021/12/22 09:32:15;;;;;;;19.93;15.33;;;-3.30;99.90;;;;;;5057402;28;20621;-84
2021/12/22 09:34:42;;;;;;;18.60;15.17;;;-3.30;99.90;;;;;;5057197;28;20189;-84
2021/12/22 09:37:08;;;;;;;16.57;14.93;;;-3.20;99.90;;;;;;5057150;28;20214;-84
2021/12/22 09:39:34;;;;;;;16.93;14.63;;;-3.10;99.90;;;;;;5057096;28;20554;-84
2021/12/22 09:42:00;;;;;;;18.23;16.00;;;-3.00;99.90;;;;;;5056558;28;20215;-84
2021/12/22 09:44:31;;;;;;;17.13;15.37;;;-2.90;99.90;;;;;;5058660;28;20607;-84
2021/12/22 09:46:57;;;;;;;18.03;16.10;;;-2.90;99.90;;;;;;5058097;28;20205;-84
2021/12/22 09:49:59;;;;;;;17.40;15.20;;;-2.80;99.90;;;;;;5056976;28;20214;-84
2021/12/22 09:52:23;;;;;;;16.83;15.03;;;-2.70;99.90;;;;;;5074582;28;20549;-84
2021/12/22 09:54:52;;;;;;;17.10;14.73;;;-2.60;99.90;;;;;;5056053;28;20170;-85
2021/12/22 09:57:19;;;;;;;17.53;15.73;;;-2.60;99.90;;;;;;5057534;28;20186;-85
2021/12/22 09:59:47;;;;;;;16.97;15.27;;;-2.60;99.90;;;;;;5071847;28;20169;-84
2021/12/22 10:02:13;;;;;;;17.23;15.47;;;-2.50;99.90;;;;;;5075878;28;20301;-84
2021/12/22 10:04:39;;;;;;;17.10;15.40;;;-2.50;99.90;;;;;;5081546;28;20417;-85
2021/12/22 10:07:08;;;;;;;17.97;15.53;;;-2.40;99.90;;;;;;5055754;28;20265;-84
2021/12/22 10:09:44;;;;;;;17.10;15.30;;;-2.30;99.90;;;;;;5056704;28;20170;-84
2021/12/22 10:12:28;;;;;;;16.27;14.57;;;-2.20;99.90;;;;;;5056496;28;20167;-84
2021/12/22 10:14:58;;;;;;;17.60;15.70;;;-2.00;99.90;;;;;;5055342;28;20178;-84
2021/12/22 10:17:37;;;;;;;16.23;14.53;;;-1.90;99.90;;;;;;5055466;28;20256;-84
2021/12/22 10:20:08;;;;;;;16.37;14.83;;;-1.80;99.90;;;;;;5055318;28;20170;-84
2021/12/22 10:22:43;;;;;;;20.10;15.90;;;-1.60;99.90;;;;;;5056054;28;20210;-84
2021/12/22 10:25:23;;;;;;;17.40;15.60;;;-1.40;99.90;;;;;;5056360;28;20186;-84
2021/12/22 10:28:09;;;;;;;16.77;15.03;;;-1.20;99.90;;;;;;5055015;28;20297;-84
2021/12/22 10:30:42;;;;;;;16.73;15.13;;;-1.00;99.90;;;;;;5056346;28;20170;-84
2021/12/22 10:33:24;;;;;;;16.97;15.17;;;-0.80;99.90;;;;;;5055045;28;20209;-84
2021/12/22 10:35:59;;;;;;;16.87;14.90;;;-0.60;99.90;;;;;;5056639;28;20231;-84
2021/12/22 10:38:28;;;;;;;16.23;14.47;;;-0.40;99.90;;;;;;5055227;28;20239;-84
2021/12/22 10:41:01;;;;;;;16.57;14.80;;;-0.30;99.90;;;;;;5054837;28;20210;-84
2021/12/22 10:43:31;;;;;;;16.63;14.87;;;-0.10;99.90;;;;;;5054757;28;20202;-84
2021/12/22 10:46:03;;;;;;;18.50;14.73;;;0.00;99.90;;;;;;5056556;28;20542;-84
2021/12/22 10:51:31;;;;;;;16.33;14.73;;;0.20;99.90;;;;;;5060193;28;20216;-84
2021/12/22 10:53:58;;;;;;;16.77;13.73;;;0.20;99.90;;;;;;5057033;28;20209;-83
2021/12/22 10:56:28;;;;;;;15.27;13.60;;;0.40;99.90;;;;;;5056868;28;20182;-84
2021/12/22 10:59:02;;;;;;;16.87;13.77;;;0.60;99.90;;;;;;5056792;28;20217;-84
2021/12/22 11:01:28;;;;;;;14.53;13.03;;;0.60;99.90;;;;;;5057939;28;20263;-84
2021/12/22 11:04:02;;;;;;;13.97;12.57;;;0.70;99.90;;;;;;5056809;28;20659;-83
2021/12/22 11:06:30;;;;;;;14.77;13.27;;;0.80;99.90;;;;;;5054953;28;20206;-84
2021/12/22 11:09:08;;;;;;;14.60;13.10;;;0.80;99.90;;;;;;5055553;28;20702;-83
2021/12/22 11:11:38;;;;;;;14.70;13.27;;;1.00;99.90;;;;;;5057067;28;20208;-84
2021/12/22 11:14:10;;;;;;;14.73;12.57;;;1.10;99.90;;;;;;5055632;28;20229;-84
2021/12/22 11:17:00;;;;;;;15.03;13.40;;;1.30;99.90;;;;;;5072927;28;20189;-84
2021/12/22 11:19:29;;;;;;;14.50;13.13;;;1.40;99.90;;;;;;5077873;28;20182;-84
2021/12/22 11:22:36;;;;;;;21.87;15.57;;;1.30;99.90;;;;;;5059941;28;20218;-84
2021/12/22 11:25:02;;;;;;;17.77;14.43;;;1.30;99.90;;;;;;5041862;28;20202;-84
2021/12/22 11:27:28;;;;;;;16.27;14.67;;;1.50;99.90;;;;;;5060291;28;20175;-84
2021/12/22 11:29:56;;;;;;;15.57;13.97;;;1.70;99.90;;;;;;5057554;28;20181;-84
2021/12/22 11:32:27;;;;;;;18.30;13.83;;;1.70;99.90;;;;;;5056574;28;20742;-84
2021/12/22 11:34:55;;;;;;;14.57;13.27;;;1.80;99.90;;;;;;5056881;28;20248;-84
2021/12/22 11:37:22;;;;;;;14.40;12.93;;;1.80;99.90;;;;;;5058345;28;20225;-84
2021/12/22 11:39:50;;;;;;;15.70;13.07;;;2.00;99.90;;;;;;5056508;28;20179;-84
2021/12/22 11:42:19;;;;;;;13.77;12.47;;;2.10;99.90;;;;;;5055748;28;20678;-84
2021/12/22 11:44:50;;;;;;;14.60;13.10;;;2.20;99.90;;;;;;5056161;28;20170;-84
2021/12/22 11:47:16;;;;;;;15.00;12.50;;;2.30;99.90;;;;;;5056843;28;20170;-84
2021/12/22 11:49:49;;;;;;;15.50;12.40;;;2.40;99.90;;;;;;5055737;28;20205;-84
2021/12/22 11:52:39;;;;;;;17.10;15.23;;;2.40;99.90;;;;;;5071554;28;20166;-84
2021/12/22 11:55:08;;;;;;;17.00;14.47;;;2.50;99.90;;;;;;5054655;28;20666;-84
2021/12/22 11:57:34;;;;;;;17.13;14.30;;;2.50;99.90;;;;;;5054421;28;20647;-84
2021/12/22 12:00:23;;;;;;;16.07;14.17;;;2.60;99.90;;;;;;5054285;28;20182;-84
2021/12/22 12:02:49;;;;;;;15.13;13.00;;;2.60;99.90;;;;;;5054381;28;20202;-84
2021/12/22 12:05:22;;;;;;;15.53;13.43;;;2.60;99.90;;;;;;5053983;28;20662;-84
2021/12/22 12:07:54;;;;;;;15.20;13.60;;;2.60;99.90;;;;;;5054025;28;20224;-84
2021/12/22 12:10:41;;;;;;;16.13;12.83;;;2.50;99.90;;;;;;5053908;28;20764;-84
2021/12/22 12:13:38;;;;;;;14.40;12.90;;;2.50;99.90;;;;;;5053598;28;20252;-84
2021/12/22 12:22:36;;;;;;;14.40;12.97;;;2.60;99.90;;;;;;5049084;28;20728;-84
2021/12/22 12:25:09;;;;;;;14.53;12.67;;;2.60;99.90;;;;;;5054849;28;20716;-84
2021/12/22 12:27:41;;;;;;;13.50;11.60;;;2.70;99.90;;;;;;5053728;28;20175;-84
2021/12/22 12:30:19;;;;;;;16.90;12.60;;;2.70;99.90;;;;;;5053780;28;20213;-84
2021/12/22 12:32:50;;;;;;;13.00;11.60;;;2.80;99.90;;;;;;5053668;28;20194;-84
2021/12/22 12:35:19;;;;;;;13.03;11.73;;;2.80;99.90;;;;;;5054848;28;20594;-85
2021/12/22 12:38:12;;;;;;;13.63;12.27;;;2.80;99.90;;;;;;5054730;28;20182;-84
2021/12/22 12:41:05;;;;;;;12.63;11.33;;;2.80;99.90;;;;;;5053595;28;20682;-84
2021/12/22 12:43:44;;;;;;;13.37;12.13;;;2.80;99.90;;;;;;5054366;28;20225;-84
2021/12/22 12:46:28;;;;;;;11.90;10.90;;;2.70;99.90;;;;;;5054222;28;20181;-85
2021/12/22 12:48:54;;;;;;;12.80;11.67;;;2.70;99.90;;;;;;5053743;28;20163;-84
2021/12/22 12:51:42;;;;;;;12.93;11.53;;;2.60;99.90;;;;;;5053576;28;20273;-84
2021/12/22 12:54:17;;;;;;;13.43;11.50;;;2.50;99.90;;;;;;5053973;28;20233;-85